createdAt,value
2018-05-04T00:00:38.097Z,99996.30
2018-05-04T00:03:04.785Z,99994.86
2018-05-04T00:05:31.490Z,99999.98
2018-05-04T00:07:58.142Z,99999.81
2018-05-04T00:10:28.458Z,99999.98
2018-05-04T00:12:55.157Z,100004.16
2018-05-04T00:15:21.711Z,99998.39
2018-05-04T00:17:48.386Z,99992.54
2018-05-04T00:20:19.004Z,99997.74
2018-05-04T00:22:45.819Z,99989.58
2018-05-04T00:25:12.445Z,99993.00
2018-05-04T00:27:39.074Z,99984.89
2018-05-04T00:30:12.256Z,99984.74
2018-05-04T00:32:38.946Z,99981.56
2018-05-04T00:35:05.710Z,99977.88
2018-05-04T00:37:32.514Z,99980.60
2018-05-04T00:40:00.612Z,99975.50
2018-05-04T00:42:27.250Z,99971.88
2018-05-04T00:44:54.252Z,99975.36
2018-05-04T00:47:20.872Z,99977.89
2018-05-04T00:49:47.768Z,99977.17
2018-05-04T00:52:14.840Z,99976.26
2018-05-04T00:54:41.524Z,99979.88
2018-05-04T00:57:08.144Z,99970.08
2018-05-04T00:59:34.859Z,99977.11
2018-05-04T01:02:01.344Z,99974.28
2018-05-04T01:04:28.026Z,99977.36
2018-05-04T01:06:54.759Z,99970.73
2018-05-04T01:09:24.660Z,99965.88
2018-05-04T01:11:51.187Z,99968.52
2018-05-04T01:14:18.187Z,99966.11
2018-05-04T01:16:44.942Z,99961.95
2018-05-04T01:19:13.039Z,99960.41
2018-05-04T01:21:39.685Z,99963.89
2018-05-04T01:24:06.268Z,99961.05
2018-05-04T01:26:32.950Z,99958.38
2018-05-04T01:29:02.859Z,99965.86
2018-05-04T01:31:29.571Z,99958.91
2018-05-04T01:33:56.334Z,99957.63
2018-05-04T01:36:22.960Z,99961.21
2018-05-04T01:38:50.887Z,99961.81
2018-05-04T01:41:17.845Z,99954.28
2018-05-04T01:43:44.538Z,99958.67
2018-05-04T01:46:11.479Z,99960.03
2018-05-04T01:48:43.402Z,99961.98
2018-05-04T01:51:09.988Z,99959.73
2018-05-04T01:53:36.622Z,99962.53
2018-05-04T01:56:03.206Z,99963.20
2018-05-04T01:58:40.388Z,99968.10
2018-05-04T02:01:06.998Z,99974.53
2018-05-04T02:03:33.649Z,99968.36
2018-05-04T02:06:00.261Z,99963.97
2018-05-04T02:08:27.952Z,99962.87
2018-05-04T02:10:54.581Z,99967.64
2018-05-04T02:13:21.226Z,99959.68
2018-05-04T02:15:47.798Z,99966.48
2018-05-04T02:18:14.505Z,99962.89
2018-05-04T02:20:41.457Z,99964.52
2018-05-04T02:23:08.093Z,99967.17
2018-05-04T02:25:34.682Z,99970.17
2018-05-04T02:28:01.352Z,99971.92
2018-05-04T02:30:31.359Z,99977.03
2018-05-04T02:32:57.948Z,99970.91
2018-05-04T02:35:24.529Z,99971.77
2018-05-04T02:37:51.230Z,99981.33
2018-05-04T02:40:21.643Z,99981.86
2018-05-04T02:42:48.233Z,99987.50
2018-05-04T02:45:14.789Z,99986.73
2018-05-04T02:47:41.750Z,99984.17
2018-05-04T02:50:11.964Z,99985.02
2018-05-04T02:52:38.982Z,99985.35
2018-05-04T02:55:06.233Z,99988.00
2018-05-04T02:57:32.977Z,99986.87
2018-05-04T02:59:59.849Z,99989.70
2018-05-04T03:02:26.670Z,99987.56
2018-05-04T03:04:53.705Z,99990.67
2018-05-04T03:07:20.661Z,99994.17
2018-05-04T03:09:52.594Z,99997.59
2018-05-04T03:12:19.325Z,100005.40
2018-05-04T03:14:46.029Z,100008.81
2018-05-04T03:17:12.517Z,100009.56
2018-05-04T03:19:44.931Z,100011.61
2018-05-04T03:22:11.433Z,100008.36
2018-05-04T03:24:37.996Z,100013.45
2018-05-04T03:27:04.913Z,100012.26
2018-05-04T03:29:39.221Z,100010.03
2018-05-04T03:32:05.949Z,100014.19
2018-05-04T03:34:32.461Z,100006.41
2018-05-04T03:36:59.037Z,100013.98
2018-05-04T03:39:30.010Z,100008.41
2018-05-04T03:41:56.649Z,100008.66
2018-05-04T03:44:24.278Z,100013.52
2018-05-04T03:46:51.374Z,100016.91
2018-05-04T03:49:21.729Z,100014.77
2018-05-04T03:51:48.317Z,100012.97
2018-05-04T03:54:15.010Z,100017.34
2018-05-04T03:56:41.708Z,100013.75
2018-05-04T03:59:21.147Z,100014.37
2018-05-04T04:01:59.806Z,100018.67
2018-05-04T04:04:26.472Z,100017.52
2018-05-04T04:06:53.205Z,100014.09
2018-05-04T04:09:20.070Z,100019.56
2018-05-04T04:11:46.633Z,100019.04
2018-05-04T04:14:13.287Z,100019.47
2018-05-04T04:16:39.974Z,100022.84
2018-05-04T04:19:11.089Z,100028.72
2018-05-04T04:21:37.650Z,100030.27
2018-05-04T04:24:04.302Z,100034.63
2018-05-04T04:26:30.877Z,100033.84
2018-05-04T04:28:59.717Z,100036.36
2018-05-04T04:31:26.410Z,100037.62
2018-05-04T04:33:53.182Z,100035.86
2018-05-04T04:36:19.780Z,100041.94
2018-05-04T04:38:47.549Z,100039.36
2018-05-04T04:41:14.249Z,100040.68
2018-05-04T04:43:40.833Z,100041.04
2018-05-04T04:46:07.454Z,100044.37
2018-05-04T04:48:35.115Z,100048.94
2018-05-04T04:51:01.853Z,100050.54
2018-05-04T04:53:28.610Z,100057.32
2018-05-04T04:55:55.301Z,100054.79
2018-05-04T04:58:24.953Z,100054.48
2018-05-04T05:00:51.530Z,100048.55
2018-05-04T05:03:18.189Z,100054.24
2018-05-04T05:05:44.779Z,100058.83
2018-05-04T05:08:12.621Z,100051.92
2018-05-04T05:10:39.176Z,100050.55
2018-05-04T05:13:05.737Z,100049.06
2018-05-04T05:15:32.469Z,100045.55
2018-05-04T05:17:59.095Z,100047.64
2018-05-04T05:20:26.146Z,100051.34
2018-05-04T05:22:52.790Z,100040.05
2018-05-04T05:25:19.371Z,100042.94
2018-05-04T05:27:46.040Z,100045.29
2018-05-04T05:30:18.525Z,100056.41
2018-05-04T05:32:45.085Z,100057.72
2018-05-04T05:35:11.902Z,100053.31
2018-05-04T05:37:38.859Z,100058.23
2018-05-04T05:40:05.525Z,100059.99
2018-05-04T05:42:32.486Z,100068.16
2018-05-04T05:44:59.258Z,100072.88
2018-05-04T05:47:26.001Z,100070.95
2018-05-04T05:49:55.862Z,100058.65
2018-05-04T05:52:23.261Z,100059.75
2018-05-04T05:54:50.286Z,100063.74
2018-05-04T05:57:16.982Z,100066.46
2018-05-04T05:59:46.994Z,100058.63
2018-05-04T06:02:13.670Z,100063.36
2018-05-04T06:04:40.645Z,100070.49
2018-05-04T06:07:07.213Z,100063.28
2018-05-04T06:09:39.324Z,100066.80
2018-05-04T06:12:05.996Z,100064.41
2018-05-04T06:14:32.637Z,100061.68
2018-05-04T06:16:59.312Z,100060.81
2018-05-04T06:19:32.221Z,100053.45
2018-05-04T06:21:58.965Z,100053.28
2018-05-04T06:24:25.632Z,100052.19
2018-05-04T06:26:52.366Z,100057.68
2018-05-04T06:29:20.316Z,100061.17
2018-05-04T06:31:47.015Z,100054.61
2018-05-04T06:34:13.714Z,100056.97
2018-05-04T06:36:40.373Z,100058.50
2018-05-04T06:39:13.954Z,100057.78
2018-05-04T06:41:40.590Z,100060.48
2018-05-04T06:44:07.282Z,100058.13
2018-05-04T06:46:34.061Z,100053.60
2018-05-04T06:49:04.391Z,100056.59
2018-05-04T06:51:31.053Z,100055.43
2018-05-04T06:53:57.677Z,100056.75
2018-05-04T06:56:24.335Z,100054.84
2018-05-04T06:59:03.643Z,100046.64
2018-05-04T07:01:30.390Z,100050.93
2018-05-04T07:03:57.055Z,100051.47
2018-05-04T07:06:23.604Z,100055.10
2018-05-04T07:08:53.884Z,100054.13
2018-05-04T07:11:20.941Z,100053.39
2018-05-04T07:13:47.641Z,100053.11
2018-05-04T07:16:14.284Z,100054.72
2018-05-04T07:18:45.594Z,100054.89
2018-05-04T07:21:12.537Z,100056.59
2018-05-04T07:23:39.206Z,100053.18
2018-05-04T07:26:05.894Z,100050.30
2018-05-04T07:28:36.754Z,100054.52
2018-05-04T07:31:03.400Z,100049.25
2018-05-04T07:33:30.111Z,100047.62
2018-05-04T07:35:56.900Z,100050.75
2018-05-04T07:38:27.118Z,100044.73
2018-05-04T07:40:53.744Z,100050.80
2018-05-04T07:43:20.414Z,100032.89
2018-05-04T07:45:47.006Z,100028.30
2018-05-04T07:48:24.152Z,100026.58
2018-05-04T07:50:50.754Z,100038.56
2018-05-04T07:53:17.419Z,100035.89
2018-05-04T07:55:44.158Z,100032.39
2018-05-04T07:58:24.780Z,100028.76
2018-05-04T08:00:51.485Z,100033.14
2018-05-04T08:03:18.077Z,100044.73
2018-05-04T08:05:44.729Z,100030.59
2018-05-04T08:08:12.634Z,100032.48
2018-05-04T08:10:39.362Z,100025.95
2018-05-04T08:13:06.069Z,100026.88
2018-05-04T08:15:32.743Z,100021.05
2018-05-04T08:18:02.527Z,100030.19
2018-05-04T08:20:29.957Z,100018.67
2018-05-04T08:22:56.936Z,100027.28
2018-05-04T08:25:23.677Z,100014.53
2018-05-04T08:27:53.881Z,100021.01
2018-05-04T08:30:20.482Z,100019.59
2018-05-04T08:32:47.069Z,100015.25
2018-05-04T08:35:13.839Z,100020.92
2018-05-04T08:37:43.625Z,100019.09
2018-05-04T08:40:10.647Z,100019.52
2018-05-04T08:42:37.309Z,100026.47
2018-05-04T08:45:09.906Z,100016.77
2018-05-04T08:47:47.607Z,100012.69
2018-05-04T08:50:14.204Z,100009.53
2018-05-04T08:52:41.960Z,99999.02
2018-05-04T08:55:08.756Z,100004.84
2018-05-04T08:57:35.516Z,100007.38
2018-05-04T09:00:02.138Z,100007.95
2018-05-04T09:02:28.800Z,100001.62
2018-05-04T09:04:55.425Z,100007.20
2018-05-04T09:07:22.075Z,100007.90
2018-05-04T09:09:48.705Z,100018.62
2018-05-04T09:12:15.441Z,100010.52
2018-05-04T09:14:42.135Z,100016.52
2018-05-04T09:17:08.842Z,100009.53
2018-05-04T09:19:35.572Z,100006.98
2018-05-04T09:22:02.216Z,100004.62
2018-05-04T09:24:28.853Z,100005.41
2018-05-04T09:26:55.634Z,100005.20
2018-05-04T09:29:23.643Z,100002.05
2018-05-04T09:31:51.094Z,100000.91
2018-05-04T09:34:18.075Z,100000.89
2018-05-04T09:36:44.708Z,100001.27
2018-05-04T09:39:14.538Z,99999.61
2018-05-04T09:41:41.093Z,99999.27
2018-05-04T09:44:07.797Z,100002.04
2018-05-04T09:46:34.404Z,100007.71
2018-05-04T09:49:01.139Z,100003.30
2018-05-04T09:51:27.885Z,100003.89
2018-05-04T09:53:54.529Z,99996.20
2018-05-04T09:56:21.313Z,100002.47
2018-05-04T09:58:59.013Z,99999.50
2018-05-04T10:01:25.970Z,99994.23
2018-05-04T10:03:52.897Z,99996.35
2018-05-04T10:06:19.641Z,99991.83
2018-05-04T10:08:50.337Z,99984.37
2018-05-04T10:11:16.987Z,99983.73
2018-05-04T10:13:43.753Z,99986.16
2018-05-04T10:16:10.606Z,99982.84
2018-05-04T10:18:37.482Z,99982.72
2018-05-04T10:21:04.165Z,99975.19
2018-05-04T10:23:31.289Z,99973.20
2018-05-04T10:25:58.370Z,99979.47
2018-05-04T10:28:26.154Z,99979.03
2018-05-04T10:30:52.837Z,99973.30
2018-05-04T10:33:19.777Z,99982.38
2018-05-04T10:35:46.835Z,99968.42
2018-05-04T10:38:16.878Z,99978.41
2018-05-04T10:40:43.480Z,99987.63
2018-05-04T10:43:10.233Z,99984.82
2018-05-04T10:45:36.786Z,99978.14
2018-05-04T10:48:06.684Z,99984.69
2018-05-04T10:50:33.409Z,99975.81
2018-05-04T10:53:00.283Z,99967.72
2018-05-04T10:55:32.702Z,99979.01
2018-05-04T10:58:02.781Z,99982.10
2018-05-04T11:00:29.831Z,99980.45
2018-05-04T11:02:56.497Z,99972.81
2018-05-04T11:05:23.243Z,99972.41
2018-05-04T11:07:49.729Z,99965.75
2018-05-04T11:10:16.345Z,99967.84
2018-05-04T11:12:43.196Z,99966.28
2018-05-04T11:15:10.381Z,99975.63
2018-05-04T11:17:44.811Z,99973.48
2018-05-04T11:20:12.023Z,99981.56
2018-05-04T11:22:38.671Z,99972.20
2018-05-04T11:25:05.330Z,99970.16
2018-05-04T11:27:42.284Z,99961.90
2018-05-04T11:30:08.934Z,99970.09
2018-05-04T11:32:35.667Z,99958.52
2018-05-04T11:35:02.319Z,99970.73
2018-05-04T11:37:33.908Z,99974.06
2018-05-04T11:40:00.559Z,99978.59
2018-05-04T11:42:27.189Z,99971.92
2018-05-04T11:44:54.420Z,99969.53
2018-05-04T11:47:25.011Z,99971.58
2018-05-04T11:49:51.511Z,99973.75
2018-05-04T11:52:18.185Z,99971.91
2018-05-04T11:54:44.754Z,99974.70
2018-05-04T11:57:15.609Z,99970.94
2018-05-04T11:59:42.352Z,99969.43
2018-05-04T12:02:08.930Z,99971.59
2018-05-04T12:04:35.573Z,99954.71
2018-05-04T12:07:02.243Z,99961.26
2018-05-04T12:09:29.045Z,99957.66
2018-05-04T12:11:55.597Z,99967.50
2018-05-04T12:14:22.334Z,99965.01
2018-05-04T12:16:49.750Z,99963.23
2018-05-04T12:19:16.420Z,99952.71
2018-05-04T12:21:42.901Z,99952.09
2018-05-04T12:24:09.713Z,99949.06
2018-05-04T12:26:36.702Z,99951.59
2018-05-04T12:29:09.151Z,99948.20
2018-05-04T12:31:36.445Z,99947.95
2018-05-04T12:34:03.073Z,99951.81
2018-05-04T12:36:29.702Z,99942.17
2018-05-04T12:39:00.386Z,99939.90
2018-05-04T12:41:26.990Z,99945.19
2018-05-04T12:43:53.655Z,99941.25
2018-05-04T12:46:20.704Z,99940.58
2018-05-04T12:48:47.658Z,99929.78
2018-05-04T12:51:14.179Z,99931.58
2018-05-04T12:53:40.906Z,99920.77
2018-05-04T12:56:07.725Z,99924.48
2018-05-04T12:58:38.413Z,99925.23
2018-05-04T13:01:05.147Z,99920.20
2018-05-04T13:03:31.661Z,99919.20
2018-05-04T13:05:58.343Z,99920.56
2018-05-04T13:08:35.505Z,99916.73
2018-05-04T13:11:02.082Z,99923.48
2018-05-04T13:13:28.699Z,99916.70
2018-05-04T13:15:55.431Z,99914.92
2018-05-04T13:18:34.739Z,99915.47
2018-05-04T13:21:01.325Z,99901.95
2018-05-04T13:23:27.976Z,99897.53
2018-05-04T13:25:54.576Z,99907.66
2018-05-04T13:28:25.542Z,99907.76
2018-05-04T13:30:52.180Z,99904.06
2018-05-04T13:33:18.705Z,99900.38
2018-05-04T13:35:45.737Z,99901.86
2018-05-04T13:38:15.953Z,99902.86
2018-05-04T13:40:42.646Z,99904.23
2018-05-04T13:43:09.345Z,99900.35
2018-05-04T13:45:36.120Z,99904.38
2018-05-04T13:48:02.985Z,99892.86
2018-05-04T13:50:29.690Z,99905.28
2018-05-04T13:52:56.657Z,99897.13
2018-05-04T13:55:23.267Z,99893.31
2018-05-04T13:58:00.246Z,99888.97
2018-05-04T14:00:26.926Z,99895.33
2018-05-04T14:02:53.609Z,99891.55
2018-05-04T14:05:21.025Z,99888.48
2018-05-04T14:07:53.586Z,99886.66
2018-05-04T14:10:20.125Z,99886.13
2018-05-04T14:12:46.806Z,99879.83
2018-05-04T14:15:13.692Z,99880.25
2018-05-04T14:17:46.617Z,99880.05
2018-05-04T14:20:13.334Z,99880.13
2018-05-04T14:22:39.927Z,99872.41
2018-05-04T14:25:06.508Z,99871.59
2018-05-04T14:27:39.737Z,99873.68
2018-05-04T14:30:06.846Z,99875.62
2018-05-04T14:32:33.581Z,99872.55
2018-05-04T14:35:00.228Z,99872.72
2018-05-04T14:37:28.004Z,99865.79
2018-05-04T14:39:54.660Z,99868.20
2018-05-04T14:42:21.352Z,99863.59
2018-05-04T14:44:48.067Z,99862.44
2018-05-04T14:47:15.068Z,99854.13
2018-05-04T14:49:41.820Z,99856.69
2018-05-04T14:52:08.522Z,99859.34
2018-05-04T14:54:35.248Z,99862.17
2018-05-04T14:57:05.726Z,99853.48
2018-05-04T14:59:32.614Z,99867.70
2018-05-04T15:01:59.320Z,99860.66
2018-05-04T15:04:26.766Z,99846.69
2018-05-04T15:06:59.126Z,99851.15
2018-05-04T15:09:25.706Z,99842.94
2018-05-04T15:11:52.464Z,99854.42
2018-05-04T15:14:18.957Z,99852.50
2018-05-04T15:16:49.096Z,99857.18
2018-05-04T15:19:16.111Z,99852.48
2018-05-04T15:21:42.809Z,99845.19
2018-05-04T15:24:09.523Z,99859.09
2018-05-04T15:26:39.485Z,99851.36
2018-05-04T15:29:07.206Z,99842.56
2018-05-04T15:31:33.797Z,99850.69
2018-05-04T15:34:00.334Z,99841.73
2018-05-04T15:36:26.911Z,99847.82
2018-05-04T15:38:53.480Z,99838.59
2018-05-04T15:41:20.052Z,99847.27
2018-05-04T15:43:46.672Z,99858.05
2018-05-04T15:46:13.314Z,99849.97
2018-05-04T15:48:49.222Z,99842.88
2018-05-04T15:51:21.990Z,99847.07
2018-05-04T15:53:48.697Z,99852.11
2018-05-04T15:56:15.397Z,99840.55
2018-05-04T15:58:45.134Z,99856.80
2018-05-04T16:01:11.807Z,99841.30
2018-05-04T16:03:38.511Z,99845.91
2018-05-04T16:06:05.693Z,99850.27
2018-05-04T16:08:32.404Z,99850.09
2018-05-04T16:11:00.006Z,99855.84
2018-05-04T16:13:26.604Z,99847.69
2018-05-04T16:15:53.180Z,99851.05
2018-05-04T16:18:21.417Z,99847.77
2018-05-04T16:20:48.086Z,99858.06
2018-05-04T16:23:14.750Z,99855.67
2018-05-04T16:25:41.399Z,99858.70
2018-05-04T16:28:18.720Z,99862.08
2018-05-04T16:30:45.474Z,99861.44
2018-05-04T16:33:12.104Z,99861.92
2018-05-04T16:35:38.727Z,99862.92
2018-05-04T16:38:09.362Z,99865.10
2018-05-04T16:40:35.957Z,99877.06
2018-05-04T16:43:02.973Z,99878.59
2018-05-04T16:45:29.699Z,99886.51
2018-05-04T16:48:05.582Z,99884.05
2018-05-04T16:50:32.387Z,99887.28
2018-05-04T16:52:58.979Z,99887.23
2018-05-04T16:55:25.766Z,99888.35
2018-05-04T16:58:02.834Z,99883.27
2018-05-04T17:00:30.073Z,99890.45
2018-05-04T17:02:56.708Z,99884.84
2018-05-04T17:05:23.274Z,99888.30
2018-05-04T17:07:50.916Z,99890.80
2018-05-04T17:10:17.534Z,99897.56
2018-05-04T17:12:44.685Z,99894.84
2018-05-04T17:15:11.660Z,99894.97
2018-05-04T17:17:41.565Z,99897.42
2018-05-04T17:20:08.132Z,99889.29
2018-05-04T17:22:34.734Z,99899.78
2018-05-04T17:25:01.362Z,99901.06
2018-05-04T17:27:34.285Z,99901.14
2018-05-04T17:30:01.025Z,99907.92
2018-05-04T17:32:27.632Z,99910.02
2018-05-04T17:34:54.228Z,99908.66
2018-05-04T17:37:24.676Z,99911.14
2018-05-04T17:39:51.329Z,99910.05
2018-05-04T17:42:18.897Z,99907.02
2018-05-04T17:44:45.439Z,99909.73
2018-05-04T17:47:15.820Z,99909.27
2018-05-04T17:49:42.471Z,99915.88
2018-05-04T17:52:09.217Z,99917.83
2018-05-04T17:54:35.930Z,99923.21
2018-05-04T17:57:12.820Z,99932.23
2018-05-04T17:59:39.502Z,99927.89
2018-05-04T18:02:06.273Z,99926.84
2018-05-04T18:04:32.968Z,99926.23
2018-05-04T18:07:03.562Z,99925.25
2018-05-04T18:09:30.358Z,99931.75
2018-05-04T18:11:56.863Z,99926.48
2018-05-04T18:14:23.998Z,99927.44
2018-05-04T18:16:53.976Z,99934.16
2018-05-04T18:19:20.445Z,99929.01
2018-05-04T18:21:47.098Z,99935.00
2018-05-04T18:24:13.730Z,99939.27
2018-05-04T18:26:44.370Z,99942.11
2018-05-04T18:29:11.922Z,99947.64
2018-05-04T18:31:38.491Z,99944.56
2018-05-04T18:34:05.007Z,99957.44
2018-05-04T18:36:31.851Z,99957.48
2018-05-04T18:38:58.491Z,99955.88
2018-05-04T18:41:25.127Z,99950.27
2018-05-04T18:43:51.774Z,99966.62
2018-05-04T18:46:24.438Z,99962.91
2018-05-04T18:48:51.157Z,99964.22
2018-05-04T18:51:17.796Z,99964.95
2018-05-04T18:53:44.422Z,99969.20
2018-05-04T18:56:11.283Z,99967.42
2018-05-04T18:58:37.986Z,99967.30
2018-05-04T19:01:04.737Z,99966.44
2018-05-04T19:03:31.309Z,99963.71
2018-05-04T19:06:01.581Z,99965.11
2018-05-04T19:08:28.972Z,99969.31
2018-05-04T19:10:56.255Z,99962.67
2018-05-04T19:13:22.968Z,99960.91
2018-05-04T19:15:49.618Z,99954.41
2018-05-04T19:18:16.315Z,99951.43
2018-05-04T19:20:42.943Z,99955.88
2018-05-04T19:23:09.613Z,99954.77
2018-05-04T19:25:36.328Z,99949.23
2018-05-04T19:28:09.238Z,99950.70
2018-05-04T19:30:35.861Z,99949.88
2018-05-04T19:33:02.860Z,99946.91
2018-05-04T19:35:29.631Z,99950.65
2018-05-04T19:37:56.237Z,99944.09
2018-05-04T19:40:22.890Z,99940.52
2018-05-04T19:42:52.320Z,99940.36
2018-05-04T19:45:19.624Z,99933.18
2018-05-04T19:47:49.667Z,99935.41
2018-05-04T19:50:16.241Z,99939.09
2018-05-04T19:52:42.945Z,99933.45
2018-05-04T19:55:10.957Z,99933.08
2018-05-04T19:57:39.529Z,99930.38
2018-05-04T20:00:06.207Z,99933.58
2018-05-04T20:02:32.912Z,99931.06
2018-05-04T20:04:59.637Z,99934.04
2018-05-04T20:07:26.482Z,99935.27
2018-05-04T20:09:53.173Z,99932.70
2018-05-04T20:12:19.725Z,99938.24
2018-05-04T20:14:46.387Z,99933.53
2018-05-04T20:17:16.086Z,99936.77
2018-05-04T20:19:42.730Z,99938.32
2018-05-04T20:22:09.438Z,99936.62
2018-05-04T20:24:36.099Z,99941.72
2018-05-04T20:27:04.134Z,99940.39
2018-05-04T20:29:30.934Z,99948.97
2018-05-04T20:31:57.591Z,99936.72
2018-05-04T20:34:24.150Z,99931.22
2018-05-04T20:36:55.982Z,99927.30
2018-05-04T20:39:22.749Z,99932.62
2018-05-04T20:41:49.426Z,99930.64
2018-05-04T20:44:17.621Z,99942.11
2018-05-04T20:46:47.967Z,99928.33
2018-05-04T20:49:14.682Z,99936.13
2018-05-04T20:51:41.351Z,99929.08
2018-05-04T20:54:08.076Z,99928.17
2018-05-04T20:56:35.278Z,99931.50
2018-05-04T20:59:02.083Z,99928.58
2018-05-04T21:01:28.626Z,99920.98
2018-05-04T21:03:55.260Z,99920.26
2018-05-04T21:06:23.208Z,99925.26
2018-05-04T21:08:49.825Z,99921.32
2018-05-04T21:11:16.318Z,99930.25
2018-05-04T21:13:43.266Z,99930.49
2018-05-04T21:16:09.958Z,99933.09
2018-05-04T21:18:36.600Z,99929.17
2018-05-04T21:21:03.338Z,99934.65
2018-05-04T21:23:30.029Z,99935.33
2018-05-04T21:25:56.916Z,99940.50
2018-05-04T21:28:23.614Z,99936.72
2018-05-04T21:30:50.721Z,99934.19
2018-05-04T21:33:17.350Z,99939.67
2018-05-04T21:35:49.775Z,99939.97
2018-05-04T21:38:16.816Z,99943.19
2018-05-04T21:40:43.526Z,99945.25
2018-05-04T21:43:10.920Z,99940.03
2018-05-04T21:45:37.627Z,99935.61
2018-05-04T21:48:04.263Z,99935.39
2018-05-04T21:50:30.949Z,99921.70
2018-05-04T21:52:57.629Z,99926.32
2018-05-04T21:55:24.180Z,99920.34
2018-05-04T21:57:50.899Z,99922.46
2018-05-04T22:00:17.530Z,99922.88
2018-05-04T22:02:44.252Z,99917.28
2018-05-04T22:05:10.931Z,99919.19
2018-05-04T22:07:42.748Z,99911.80
2018-05-04T22:10:09.421Z,99896.30
2018-05-04T22:12:36.046Z,99908.02
2018-05-04T22:15:02.706Z,99901.62
2018-05-04T22:17:32.561Z,99899.70
2018-05-04T22:19:59.237Z,99903.00
2018-05-04T22:22:26.189Z,99893.66
2018-05-04T22:24:53.141Z,99889.45
2018-05-04T22:27:20.844Z,99896.98
2018-05-04T22:29:47.331Z,99891.72
2018-05-04T22:32:13.986Z,99888.75
2018-05-04T22:34:40.619Z,99885.63
2018-05-04T22:37:13.281Z,99885.67
2018-05-04T22:39:39.962Z,99882.97
2018-05-04T22:42:07.893Z,99893.05
2018-05-04T22:44:34.605Z,99890.86
2018-05-04T22:47:02.184Z,99898.55
2018-05-04T22:49:28.861Z,99893.98
2018-05-04T22:51:55.570Z,99897.68
2018-05-04T22:54:22.206Z,99895.13
2018-05-04T22:56:53.145Z,99896.81
2018-05-04T22:59:19.815Z,99905.22
2018-05-04T23:01:46.529Z,99900.45
2018-05-04T23:04:13.164Z,99898.52
2018-05-04T23:06:40.924Z,99899.00
2018-05-04T23:09:08.160Z,99897.61
2018-05-04T23:11:34.745Z,99899.52
2018-05-04T23:14:01.990Z,99899.78
2018-05-04T23:16:29.604Z,99895.45
2018-05-04T23:18:56.236Z,99892.75
2018-05-04T23:21:22.956Z,99892.80
2018-05-04T23:23:49.580Z,99892.84
2018-05-04T23:26:22.093Z,99896.43
2018-05-04T23:28:48.733Z,99896.77
2018-05-04T23:31:15.386Z,99896.23
2018-05-04T23:33:42.046Z,99906.16
2018-05-04T23:36:12.089Z,99904.80
2018-05-04T23:38:38.617Z,99903.72
2018-05-04T23:41:05.358Z,99908.19
2018-05-04T23:43:32.036Z,99904.03
2018-05-04T23:46:02.673Z,99908.80
2018-05-04T23:48:29.298Z,99910.06
2018-05-04T23:50:55.932Z,99911.06
2018-05-04T23:53:22.569Z,99920.57
2018-05-04T23:55:53.154Z,99921.14
2018-05-04T23:58:19.843Z,99918.03
